createdAt,value
2018-04-28T00:01:17.434Z,13.36
2018-04-28T00:03:45.485Z,13.39
2018-04-28T00:06:13.576Z,13.34
2018-04-28T00:08:41.681Z,13.30
2018-04-28T00:11:10.517Z,13.23
2018-04-28T00:13:38.616Z,13.21
2018-04-28T00:16:06.965Z,13.23
2018-04-28T00:18:35.069Z,13.17
2018-04-28T00:21:03.316Z,13.22
2018-04-28T00:23:31.617Z,13.26
2018-04-28T00:25:59.684Z,13.17
2018-04-28T00:28:27.761Z,13.15
2018-04-28T00:30:56.123Z,13.10
2018-04-28T00:33:24.214Z,13.13
2018-04-28T00:35:52.285Z,13.05
2018-04-28T00:38:22.200Z,13.06
2018-04-28T00:40:50.248Z,12.96
2018-04-28T00:43:18.345Z,12.90
2018-04-28T00:45:47.821Z,12.86
2018-04-28T00:48:15.894Z,12.78
2018-04-28T00:50:43.988Z,12.81
2018-04-28T00:53:12.314Z,12.78
2018-04-28T00:55:40.385Z,12.75
2018-04-28T00:58:08.453Z,12.68
2018-04-28T01:00:36.873Z,12.60
2018-04-28T01:03:04.945Z,12.59
2018-04-28T01:05:33.015Z,12.55
2018-04-28T01:08:01.486Z,12.54
2018-04-28T01:10:29.540Z,12.53
2018-04-28T01:12:57.624Z,12.52
2018-04-28T01:15:25.744Z,12.50
2018-04-28T01:17:54.567Z,12.43
2018-04-28T01:20:22.657Z,12.45
2018-04-28T01:22:50.773Z,12.40
2018-04-28T01:25:19.620Z,12.40
2018-04-28T01:27:47.688Z,12.36
2018-04-28T01:30:16.101Z,12.41
2018-04-28T01:32:44.141Z,12.29
2018-04-28T01:35:12.245Z,12.32
2018-04-28T01:37:40.328Z,12.25
2018-04-28T01:40:09.148Z,12.28
2018-04-28T01:42:37.252Z,12.21
2018-04-28T01:45:05.557Z,12.18
2018-04-28T01:47:34.617Z,12.12
2018-04-28T01:50:02.677Z,12.08
2018-04-28T01:52:31.056Z,12.11
2018-04-28T01:54:59.117Z,12.08
2018-04-28T01:57:27.208Z,12.05
2018-04-28T01:59:55.832Z,12.05
2018-04-28T02:02:23.868Z,11.90
2018-04-28T02:04:51.969Z,11.93
2018-04-28T02:07:20.034Z,11.95
2018-04-28T02:09:48.084Z,11.92
2018-04-28T02:12:16.181Z,11.84
2018-04-28T02:14:44.309Z,11.88
2018-04-28T02:17:12.397Z,11.82
2018-04-28T02:19:40.485Z,11.89
2018-04-28T02:22:08.833Z,11.91
2018-04-28T02:24:36.933Z,11.89
2018-04-28T02:27:04.977Z,11.83
2018-04-28T02:29:33.973Z,11.76
2018-04-28T02:32:02.043Z,11.72
2018-04-28T02:34:30.126Z,11.76
2018-04-28T02:36:58.260Z,11.77
2018-04-28T02:39:26.351Z,11.73
2018-04-28T02:41:54.421Z,11.69
2018-04-28T02:44:22.654Z,11.60
2018-04-28T02:46:51.507Z,11.51
2018-04-28T02:49:19.825Z,11.50
2018-04-28T02:51:48.982Z,11.45
2018-04-28T02:54:17.069Z,11.35
2018-04-28T02:56:45.164Z,11.28
2018-04-28T02:59:14.238Z,11.24
2018-04-28T03:01:42.293Z,11.20
2018-04-28T03:04:11.019Z,11.06
2018-04-28T03:06:39.881Z,11.01
2018-04-28T03:09:07.925Z,10.89
2018-04-28T03:11:35.985Z,10.81
2018-04-28T03:14:04.491Z,10.85
2018-04-28T03:16:33.089Z,10.82
2018-04-28T03:19:01.186Z,10.90
2018-04-28T03:21:30.013Z,10.84
2018-04-28T03:23:58.100Z,10.72
2018-04-28T03:26:26.193Z,10.68
2018-04-28T03:28:54.281Z,10.66
2018-04-28T03:31:22.343Z,10.60
2018-04-28T03:33:50.401Z,10.57
2018-04-28T03:36:18.488Z,10.57
2018-04-28T03:38:46.859Z,10.55
2018-04-28T03:41:15.120Z,10.44
2018-04-28T03:43:43.192Z,10.42
2018-04-28T03:46:11.564Z,10.47
2018-04-28T03:48:39.637Z,10.50
2018-04-28T03:51:07.704Z,10.53
2018-04-28T03:53:35.861Z,10.49
2018-04-28T03:56:03.852Z,10.48
2018-04-28T03:58:31.942Z,10.41
2018-04-28T04:01:00.400Z,10.36
2018-04-28T04:03:28.484Z,10.31
2018-04-28T04:05:56.745Z,10.23
2018-04-28T04:08:25.116Z,10.19
2018-04-28T04:10:53.205Z,10.11
2018-04-28T04:13:21.261Z,10.10
2018-04-28T04:15:49.333Z,10.15
2018-04-28T04:18:17.583Z,10.07
2018-04-28T04:20:45.589Z,10.07
2018-04-28T04:23:13.993Z,9.98
2018-04-28T04:25:42.073Z,9.91
2018-04-28T04:28:10.129Z,9.90
2018-04-28T04:30:38.204Z,9.88
2018-04-28T04:33:06.274Z,9.89
2018-04-28T04:35:34.341Z,9.94
2018-04-28T04:38:02.428Z,9.92
2018-04-28T04:40:30.465Z,9.90
2018-04-28T04:42:58.525Z,9.78
2018-04-28T04:45:26.833Z,9.84
2018-04-28T04:47:54.905Z,9.91
2018-04-28T04:50:22.956Z,10.04
2018-04-28T04:52:51.064Z,10.06
2018-04-28T04:55:19.915Z,10.07
2018-04-28T04:57:47.994Z,10.11
2018-04-28T05:00:16.064Z,10.17
2018-04-28T05:02:44.136Z,10.33
2018-04-28T05:05:12.229Z,10.39
2018-04-28T05:07:40.305Z,10.55
2018-04-28T05:10:08.353Z,10.63
2018-04-28T05:12:36.516Z,10.73
2018-04-28T05:15:05.625Z,10.87
2018-04-28T05:17:33.717Z,10.74
2018-04-28T05:20:02.085Z,10.83
2018-04-28T05:22:30.189Z,10.97
2018-04-28T05:24:59.024Z,11.03
2018-04-28T05:27:27.141Z,11.14
2018-04-28T05:29:56.002Z,11.25
2018-04-28T05:32:24.095Z,11.39
2018-04-28T05:34:52.145Z,11.43
2018-04-28T05:37:20.541Z,11.59
2018-04-28T05:39:48.620Z,11.64
2018-04-28T05:42:17.481Z,11.86
2018-04-28T05:44:45.589Z,11.92
2018-04-28T05:47:14.428Z,12.05
2018-04-28T05:49:42.519Z,12.19
2018-04-28T05:52:10.928Z,12.31
2018-04-28T05:54:39.772Z,12.30
2018-04-28T05:57:07.857Z,12.55
2018-04-28T05:59:36.270Z,12.63
2018-04-28T06:02:05.102Z,12.65
2018-04-28T06:04:33.185Z,12.57
2018-04-28T06:07:01.301Z,12.65
2018-04-28T06:09:30.266Z,12.88
2018-04-28T06:11:58.373Z,13.06
2018-04-28T06:14:27.607Z,12.97
2018-04-28T06:16:55.680Z,12.91
2018-04-28T06:19:23.781Z,12.78
2018-04-28T06:21:52.264Z,12.79
2018-04-28T06:24:21.245Z,12.90
2018-04-28T06:26:49.329Z,13.07
2018-04-28T06:29:17.429Z,13.23
2018-04-28T06:31:46.264Z,13.30
2018-04-28T06:34:14.436Z,13.60
2018-04-28T06:36:42.716Z,13.67
2018-04-28T06:39:10.812Z,13.90
2018-04-28T06:41:40.396Z,14.13
2018-04-28T06:44:08.468Z,14.03
2018-04-28T06:46:36.564Z,14.46
2018-04-28T06:49:04.652Z,14.71
2018-04-28T06:51:34.236Z,14.41
2018-04-28T06:54:02.293Z,14.66
2018-04-28T06:56:30.364Z,14.87
2018-04-28T06:58:59.061Z,15.24
2018-04-28T07:01:27.120Z,15.54
2018-04-28T07:03:55.228Z,15.90
2018-04-28T07:06:23.584Z,17.07
2018-04-28T07:08:51.656Z,17.76
2018-04-28T07:11:19.720Z,18.14
2018-04-28T07:13:47.802Z,18.62
2018-04-28T07:16:15.874Z,18.74
2018-04-28T07:18:43.957Z,18.22
2018-04-28T07:21:12.239Z,18.47
2018-04-28T07:23:40.489Z,18.57
2018-04-28T07:26:08.590Z,18.52
2018-04-28T07:28:36.673Z,18.65
2018-04-28T07:31:05.525Z,19.27
2018-04-28T07:33:33.593Z,19.64
2018-04-28T07:36:01.701Z,19.99
2018-04-28T07:38:30.532Z,19.93
2018-04-28T07:40:58.600Z,20.23
2018-04-28T07:43:26.698Z,20.12
2018-04-28T07:45:54.770Z,21.04
2018-04-28T07:48:22.868Z,20.42
2018-04-28T07:50:51.221Z,21.57
2018-04-28T07:53:19.321Z,21.66
2018-04-28T07:55:48.417Z,22.22
2018-04-28T07:58:17.304Z,21.83
2018-04-28T08:00:45.377Z,22.25
2018-04-28T08:03:13.470Z,22.68
2018-04-28T08:05:42.296Z,23.04
2018-04-28T08:08:10.413Z,22.80
2018-04-28T08:10:38.505Z,23.78
2018-04-28T08:13:06.544Z,24.16
2018-04-28T08:15:34.619Z,24.76
2018-04-28T08:18:03.086Z,23.64
2018-04-28T08:20:31.336Z,23.01
2018-04-28T08:22:59.400Z,23.77
2018-04-28T08:25:27.789Z,23.65
2018-04-28T08:27:55.869Z,21.99
2018-04-28T08:30:23.957Z,21.81
2018-04-28T08:32:52.057Z,21.94
2018-04-28T08:35:20.884Z,21.85
2018-04-28T08:37:48.960Z,21.86
2018-04-28T08:40:17.371Z,22.11
2018-04-28T08:42:46.364Z,23.11
2018-04-28T08:45:14.454Z,23.80
2018-04-28T08:47:42.525Z,24.97
2018-04-28T08:50:10.869Z,25.36
2018-04-28T08:52:38.974Z,23.21
2018-04-28T08:55:07.061Z,22.91
2018-04-28T08:57:36.241Z,22.13
2018-04-28T09:00:04.314Z,22.46
2018-04-28T09:02:32.356Z,22.05
2018-04-28T09:05:00.720Z,21.31
2018-04-28T09:07:28.880Z,21.97
2018-04-28T09:09:56.955Z,21.70
2018-04-28T09:12:25.025Z,22.54
2018-04-28T09:14:53.127Z,23.20
2018-04-28T09:17:21.180Z,21.94
2018-04-28T09:19:49.294Z,21.41
2018-04-28T09:22:17.365Z,22.90
2018-04-28T09:24:45.412Z,22.76
2018-04-28T09:27:13.965Z,22.76
2018-04-28T09:29:42.041Z,22.94
2018-04-28T09:32:10.237Z,22.20
2018-04-28T09:34:38.569Z,22.37
2018-04-28T09:37:06.669Z,22.82
2018-04-28T09:39:34.744Z,22.89
2018-04-28T09:42:02.825Z,21.48
2018-04-28T09:44:31.105Z,23.14
2018-04-28T09:46:59.193Z,23.13
2018-04-28T09:49:27.541Z,23.76
2018-04-28T09:51:55.598Z,23.05
2018-04-28T09:54:23.669Z,22.50
2018-04-28T09:56:51.800Z,22.76
2018-04-28T09:59:20.631Z,24.32
2018-04-28T10:01:48.703Z,25.30
2018-04-28T10:04:16.821Z,26.07
2018-04-28T10:06:44.899Z,25.96
2018-04-28T10:09:12.979Z,26.11
2018-04-28T10:11:41.441Z,24.32
2018-04-28T10:14:09.524Z,23.77
2018-04-28T10:16:37.568Z,24.38
2018-04-28T10:19:05.662Z,23.61
2018-04-28T10:21:33.709Z,24.30
2018-04-28T10:24:01.863Z,23.75
2018-04-28T10:26:29.943Z,24.34
2018-04-28T10:28:58.013Z,24.29
2018-04-28T10:31:26.101Z,24.63
2018-04-28T10:33:54.309Z,22.74
2018-04-28T10:36:23.161Z,22.52
2018-04-28T10:38:51.224Z,23.28
2018-04-28T10:41:19.629Z,23.11
2018-04-28T10:43:47.728Z,23.11
2018-04-28T10:46:16.753Z,22.62
2018-04-28T10:48:45.210Z,22.38
2018-04-28T10:51:14.053Z,22.61
2018-04-28T10:53:42.202Z,22.84
2018-04-28T10:56:10.594Z,23.15
2018-04-28T10:58:38.677Z,23.12
2018-04-28T11:01:06.736Z,23.55
2018-04-28T11:03:34.832Z,23.13
2018-04-28T11:06:02.905Z,23.95
2018-04-28T11:08:30.957Z,23.21
2018-04-28T11:10:59.457Z,22.95
2018-04-28T11:13:27.525Z,21.03
2018-04-28T11:15:57.097Z,20.31
2018-04-28T11:18:25.590Z,20.44
2018-04-28T11:20:53.657Z,20.73
2018-04-28T11:23:21.748Z,20.51
2018-04-28T11:25:50.169Z,20.41
2018-04-28T11:28:18.189Z,20.37
2018-04-28T11:30:46.282Z,20.50
2018-04-28T11:33:14.348Z,20.49
2018-04-28T11:35:42.627Z,20.61
2018-04-28T11:38:10.705Z,20.50
2018-04-28T11:40:39.152Z,20.75
2018-04-28T11:43:07.212Z,20.33
2018-04-28T11:45:35.284Z,19.88
2018-04-28T11:48:03.393Z,19.42
2018-04-28T11:50:31.453Z,19.47
2018-04-28T11:52:59.536Z,19.24
2018-04-28T11:55:27.642Z,19.54
2018-04-28T11:57:56.485Z,20.01
2018-04-28T12:00:24.657Z,20.89
2018-04-28T12:02:52.729Z,21.62
2018-04-28T12:05:20.820Z,22.48
2018-04-28T12:07:49.682Z,22.25
2018-04-28T12:10:17.761Z,22.40
2018-04-28T12:12:45.830Z,21.96
2018-04-28T12:15:13.933Z,22.43
2018-04-28T12:17:42.816Z,23.30
2018-04-28T12:20:10.865Z,22.77
2018-04-28T12:22:38.957Z,22.99
2018-04-28T12:25:07.351Z,23.44
2018-04-28T12:27:36.244Z,23.91
2018-04-28T12:30:05.181Z,24.67
2018-04-28T12:32:34.021Z,24.95
2018-04-28T12:35:02.881Z,24.83
2018-04-28T12:37:30.972Z,24.01
2018-04-28T12:39:59.057Z,23.27
2018-04-28T12:42:27.936Z,23.22
2018-04-28T12:44:55.988Z,22.73
2018-04-28T12:47:24.608Z,22.36
2018-04-28T12:49:53.793Z,21.80
2018-04-28T12:52:21.845Z,21.41
2018-04-28T12:54:50.245Z,21.05
2018-04-28T12:57:18.292Z,20.75
2018-04-28T12:59:46.349Z,21.74
2018-04-28T13:02:14.474Z,21.82
2018-04-28T13:04:43.345Z,22.34
2018-04-28T13:07:11.428Z,22.18
2018-04-28T13:09:40.523Z,22.46
2018-04-28T13:12:09.361Z,22.50
2018-04-28T13:14:37.545Z,22.56
2018-04-28T13:17:05.656Z,22.15
2018-04-28T13:19:34.521Z,22.02
2018-04-28T13:22:03.228Z,21.80
2018-04-28T13:24:31.308Z,21.46
2018-04-28T13:27:00.261Z,21.00
2018-04-28T13:29:29.080Z,20.95
2018-04-28T13:31:58.064Z,20.97
2018-04-28T13:34:26.762Z,20.92
2018-04-28T13:36:54.857Z,20.84
2018-04-28T13:39:22.900Z,20.59
2018-04-28T13:41:52.109Z,20.83
2018-04-28T13:44:20.968Z,20.79
2018-04-28T13:46:50.564Z,20.80
2018-04-28T13:49:18.976Z,20.57
2018-04-28T13:51:47.028Z,20.42
2018-04-28T13:54:15.117Z,20.19
2018-04-28T13:56:43.468Z,20.03
2018-04-28T13:59:11.730Z,20.20
2018-04-28T14:01:39.823Z,20.30
2018-04-28T14:04:07.918Z,20.52
2018-04-28T14:06:35.991Z,20.81
2018-04-28T14:09:04.072Z,20.79
2018-04-28T14:11:33.181Z,20.49
2018-04-28T14:14:01.235Z,20.68
2018-04-28T14:16:30.089Z,20.51
2018-04-28T14:18:59.405Z,20.51
2018-04-28T14:21:27.500Z,20.78
2018-04-28T14:23:56.357Z,20.63
2018-04-28T14:26:24.757Z,20.31
2018-04-28T14:28:52.833Z,19.70
2018-04-28T14:31:21.702Z,20.01
2018-04-28T14:33:49.797Z,19.79
2018-04-28T14:36:18.829Z,19.70
2018-04-28T14:38:46.906Z,19.72
2018-04-28T14:41:15.445Z,19.83
2018-04-28T14:43:43.539Z,19.82
2018-04-28T14:46:11.589Z,20.24
2018-04-28T14:48:40.577Z,20.68
2018-04-28T14:51:08.636Z,20.79
2018-04-28T14:53:36.717Z,20.64
2018-04-28T14:56:05.173Z,20.49
2018-04-28T14:58:33.248Z,20.62
2018-04-28T15:01:01.342Z,20.65
2018-04-28T15:03:30.541Z,20.89
2018-04-28T15:05:58.625Z,20.87
2018-04-28T15:08:27.473Z,20.99
2018-04-28T15:10:55.564Z,21.22
2018-04-28T15:13:23.792Z,21.15
2018-04-28T15:15:51.868Z,21.12
2018-04-28T15:18:19.948Z,20.63
2018-04-28T15:20:48.042Z,20.88
2018-04-28T15:23:16.133Z,20.49
2018-04-28T15:25:44.386Z,20.64
2018-04-28T15:28:12.481Z,20.22
2018-04-28T15:30:40.530Z,20.32
2018-04-28T15:33:08.836Z,20.28
2018-04-28T15:35:37.668Z,20.17
2018-04-28T15:38:05.974Z,20.21
2018-04-28T15:40:34.060Z,20.19
2018-04-28T15:43:02.119Z,20.18
2018-04-28T15:45:30.190Z,20.28
2018-04-28T15:47:58.574Z,20.02
2018-04-28T15:50:26.642Z,20.03
2018-04-28T15:52:54.719Z,20.02
2018-04-28T15:55:23.157Z,20.03
2018-04-28T15:57:51.169Z,20.03
2018-04-28T16:00:19.241Z,19.98
2018-04-28T16:02:47.647Z,19.50
2018-04-28T16:05:15.673Z,19.52
2018-04-28T16:07:43.742Z,19.66
2018-04-28T16:10:12.021Z,19.79
2018-04-28T16:12:40.125Z,19.89
2018-04-28T16:15:08.212Z,19.76
2018-04-28T16:17:37.360Z,19.70
2018-04-28T16:20:05.422Z,19.95
2018-04-28T16:22:33.481Z,19.94
2018-04-28T16:25:01.608Z,20.04
2018-04-28T16:27:29.794Z,20.02
2018-04-28T16:29:57.800Z,20.24
2018-04-28T16:32:26.332Z,20.20
2018-04-28T16:34:54.377Z,20.24
2018-04-28T16:37:22.432Z,20.12
2018-04-28T16:39:51.232Z,19.89
2018-04-28T16:42:19.333Z,19.57
2018-04-28T16:44:47.404Z,19.64
2018-04-28T16:47:15.784Z,19.54
2018-04-28T16:49:43.857Z,19.61
2018-04-28T16:52:11.929Z,19.63
2018-04-28T16:54:40.009Z,18.98
2018-04-28T16:57:08.837Z,19.18
2018-04-28T16:59:37.840Z,19.01
2018-04-28T17:02:05.908Z,18.77
2018-04-28T17:04:33.997Z,18.48
2018-04-28T17:07:02.099Z,18.16
2018-04-28T17:09:30.173Z,17.87
2018-04-28T17:11:59.029Z,17.44
2018-04-28T17:14:27.392Z,16.84
2018-04-28T17:16:55.992Z,16.43
2018-04-28T17:19:24.048Z,15.88
2018-04-28T17:21:52.317Z,15.08
2018-04-28T17:24:20.486Z,14.93
2018-04-28T17:26:48.556Z,14.93
2018-04-28T17:29:16.935Z,14.95
2018-04-28T17:31:45.017Z,14.84
2018-04-28T17:34:13.083Z,14.93
2018-04-28T17:36:41.197Z,14.78
2018-04-28T17:39:09.232Z,14.62
2018-04-28T17:41:37.320Z,14.39
2018-04-28T17:44:05.580Z,14.33
2018-04-28T17:46:33.659Z,14.40
2018-04-28T17:49:01.813Z,14.37
2018-04-28T17:51:29.900Z,14.43
2018-04-28T17:53:57.958Z,14.48
2018-04-28T17:56:26.056Z,14.42
2018-04-28T17:58:54.124Z,14.39
2018-04-28T18:01:22.305Z,14.47
2018-04-28T18:03:50.400Z,14.50
2018-04-28T18:06:18.841Z,14.34
2018-04-28T18:08:46.902Z,14.27
2018-04-28T18:11:14.976Z,14.24
2018-04-28T18:13:43.390Z,14.20
2018-04-28T18:16:11.451Z,14.20
2018-04-28T18:18:39.534Z,14.20
2018-04-28T18:21:07.638Z,14.14
2018-04-28T18:23:36.480Z,14.13
2018-04-28T18:26:04.619Z,14.16
2018-04-28T18:28:32.926Z,14.09
2018-04-28T18:31:00.996Z,14.13
2018-04-28T18:33:29.060Z,14.11
2018-04-28T18:35:57.136Z,14.09
2018-04-28T18:38:25.824Z,14.04
2018-04-28T18:40:53.990Z,14.02
2018-04-28T18:43:21.968Z,14.04
2018-04-28T18:45:50.040Z,13.87
2018-04-28T18:48:18.129Z,13.59
2018-04-28T18:50:46.203Z,13.56
2018-04-28T18:53:14.257Z,13.52
2018-04-28T18:55:42.345Z,13.59
2018-04-28T18:58:10.400Z,13.53
2018-04-28T19:00:38.809Z,13.63
2018-04-28T19:03:06.854Z,13.74
2018-04-28T19:05:34.909Z,13.80
2018-04-28T19:08:03.532Z,13.86
2018-04-28T19:10:31.581Z,13.92
2018-04-28T19:12:59.677Z,13.95
2018-04-28T19:15:28.012Z,14.02
2018-04-28T19:17:56.105Z,14.06
2018-04-28T19:20:24.172Z,14.04
2018-04-28T19:22:52.536Z,14.02
2018-04-28T19:25:21.233Z,13.98
2018-04-28T19:27:49.293Z,13.93
2018-04-28T19:30:17.392Z,13.91
2018-04-28T19:32:46.966Z,13.77
2018-04-28T19:35:15.049Z,13.73
2018-04-28T19:37:43.145Z,13.74
2018-04-28T19:40:11.200Z,13.79
2018-04-28T19:42:39.268Z,13.80
2018-04-28T19:45:07.419Z,13.83
2018-04-28T19:47:35.500Z,13.83
2018-04-28T19:50:03.605Z,13.78
2018-04-28T19:52:31.677Z,13.73
2018-04-28T19:54:59.936Z,13.69
2018-04-28T19:57:28.097Z,13.63
2018-04-28T19:59:56.243Z,13.60
2018-04-28T20:02:25.397Z,13.67
2018-04-28T20:04:53.484Z,13.66
2018-04-28T20:07:22.344Z,13.67
2018-04-28T20:09:50.522Z,13.64
2018-04-28T20:12:20.029Z,13.70
2018-04-28T20:14:48.117Z,13.73
2018-04-28T20:17:16.192Z,13.72
2018-04-28T20:19:44.533Z,13.75
2018-04-28T20:22:12.616Z,13.57
2018-04-28T20:24:40.717Z,13.52
2018-04-28T20:27:09.601Z,13.50
2018-04-28T20:29:37.648Z,13.40
2018-04-28T20:32:05.709Z,13.31
2018-04-28T20:34:34.117Z,13.29
2018-04-28T20:37:02.377Z,13.27
2018-04-28T20:39:30.475Z,13.32
2018-04-28T20:41:59.677Z,13.37
2018-04-28T20:44:29.258Z,13.41
2018-04-28T20:46:57.325Z,13.41
2018-04-28T20:49:25.417Z,13.39
2018-04-28T20:51:53.807Z,13.39
2018-04-28T20:54:21.937Z,13.27
2018-04-28T20:56:50.016Z,13.29
2018-04-28T20:59:18.433Z,13.14
2018-04-28T21:01:47.328Z,12.93
2018-04-28T21:04:16.189Z,13.01
2018-04-28T21:06:44.660Z,13.05
2018-04-28T21:09:12.816Z,12.86
2018-04-28T21:11:40.909Z,12.79
2018-04-28T21:14:09.284Z,12.74
2018-04-28T21:16:37.349Z,12.73
2018-04-28T21:19:05.433Z,12.62
2018-04-28T21:21:33.789Z,12.62
2018-04-28T21:24:01.885Z,12.58
2018-04-28T21:26:29.968Z,12.53
2018-04-28T21:28:59.744Z,12.55
2018-04-28T21:31:27.841Z,12.54
2018-04-28T21:33:56.073Z,12.53
2018-04-28T21:36:24.472Z,12.54
2018-04-28T21:38:52.565Z,12.54
2018-04-28T21:41:20.626Z,12.55
2018-04-28T21:43:49.029Z,12.42
2018-04-28T21:46:17.293Z,12.43
2018-04-28T21:48:45.364Z,12.26
2018-04-28T21:51:13.732Z,12.15
2018-04-28T21:53:41.805Z,12.13
2018-04-28T21:56:09.901Z,12.06
2018-04-28T21:58:38.461Z,12.10
2018-04-28T22:01:06.553Z,12.11
2018-04-28T22:03:34.633Z,12.02
2018-04-28T22:06:03.824Z,11.99
2018-04-28T22:08:31.904Z,12.03
2018-04-28T22:11:00.769Z,11.93
2018-04-28T22:13:29.777Z,11.80
2018-04-28T22:15:57.862Z,11.68
2018-04-28T22:18:26.688Z,11.67
2018-04-28T22:20:54.781Z,11.69
2018-04-28T22:23:22.869Z,11.55
2018-04-28T22:25:50.929Z,11.59
2018-04-28T22:28:19.020Z,11.57
2018-04-28T22:30:47.095Z,11.57
2018-04-28T22:33:15.167Z,11.54
2018-04-28T22:35:43.494Z,11.49
2018-04-28T22:38:11.562Z,11.41
2018-04-28T22:40:39.645Z,11.32
2018-04-28T22:43:07.735Z,11.24
2018-04-28T22:45:35.813Z,11.25
2018-04-28T22:48:04.215Z,11.25
2018-04-28T22:50:32.577Z,11.20
2018-04-28T22:53:00.638Z,11.01
2018-04-28T22:55:28.741Z,11.09
2018-04-28T22:57:57.807Z,10.97
2018-04-28T23:00:25.951Z,10.92
2018-04-28T23:02:54.041Z,10.87
2018-04-28T23:05:22.449Z,10.75
2018-04-28T23:07:50.513Z,10.83
2018-04-28T23:10:18.576Z,10.74
2018-04-28T23:12:46.656Z,10.63
2018-04-28T23:15:14.719Z,10.69
2018-04-28T23:17:42.764Z,10.72
2018-04-28T23:20:11.381Z,10.72
2018-04-28T23:22:39.421Z,10.65
2018-04-28T23:25:07.890Z,10.62
2018-04-28T23:27:36.288Z,10.59
2018-04-28T23:30:04.385Z,10.55
2018-04-28T23:32:32.432Z,10.51
2018-04-28T23:35:00.505Z,10.46
2018-04-28T23:37:28.885Z,10.43
2018-04-28T23:39:56.957Z,10.40
2018-04-28T23:42:25.155Z,10.37
2018-04-28T23:44:53.204Z,10.27
2018-04-28T23:47:21.260Z,10.29
2018-04-28T23:49:49.636Z,10.30
2018-04-28T23:52:17.696Z,10.32
2018-04-28T23:54:45.773Z,10.23
2018-04-28T23:57:13.865Z,10.17
2018-04-28T23:59:42.953Z,10.14
